Time;durP1;ratioP1;P1;durP2;ratioP2;P2;SDS_P1;SDS_P2;PMS_P1;PMS_P2;Temp;Humidity;BMP_temperature;BMP_pressure;BME280_temperature;BME280_humidity;BME280_pressure;Samples;Min_cycle;Max_cycle;Signal;HPM_P1;HPM_P2
2022/06/21 00:01:52;;;;;;;13.15;9.60;;;;;;;20.99;95.69;98913.38;5069809;28;20271;-55
2022/06/21 00:04:19;;;;;;;10.45;8.88;;;;;;;20.98;96.05;98918.81;5070210;28;20671;-55
2022/06/21 00:06:46;;;;;;;12.32;9.20;;;;;;;20.90;97.43;98922.03;5070005;28;20287;-56
2022/06/21 00:09:14;;;;;;;9.30;8.60;;;;;;;20.79;99.05;98921.22;5069950;28;20568;-56
2022/06/21 00:11:41;;;;;;;14.68;8.85;;;;;;;20.60;100.00;98924.50;5069905;28;20211;-56
2022/06/21 00:14:07;;;;;;;11.25;8.93;;;;;;;20.42;100.00;98920.69;5069991;28;20661;-55
2022/06/21 00:16:35;;;;;;;9.15;8.45;;;;;;;20.39;100.00;98918.28;5080147;28;20211;-55
2022/06/21 00:19:04;;;;;;;9.60;8.90;;;;;;;20.41;100.00;98919.00;5090311;28;20658;-55
2022/06/21 00:21:34;;;;;;;9.35;8.65;;;;;;;20.41;100.00;98919.84;5089950;28;20199;-55
2022/06/21 00:24:02;;;;;;;9.60;8.88;;;;;;;20.43;100.00;98917.09;5089688;28;20281;-57
2022/06/21 00:26:30;;;;;;;10.65;7.90;;;;;;;20.40;100.00;98912.91;5089962;28;20507;-58
2022/06/21 00:28:58;;;;;;;9.38;7.80;;;;;;;20.41;100.00;98911.94;5090000;28;20684;-57
2022/06/21 00:31:30;;;;;;;9.00;8.27;;;;;;;20.36;100.00;98922.00;5089693;28;20226;-57
2022/06/21 00:33:59;;;;;;;11.38;9.52;;;;;;;20.31;100.00;98919.69;5089837;28;20526;-55
2022/06/21 00:36:30;;;;;;;11.77;8.75;;;;;;;20.31;100.00;98919.69;5089663;28;20234;-55
2022/06/21 00:38:59;;;;;;;10.80;9.02;;;;;;;20.29;100.00;98912.88;5089960;28;20750;-55
2022/06/21 00:41:37;;;;;;;9.95;9.02;;;;;;;20.24;100.00;98910.59;5089720;28;20203;-55
2022/06/21 00:44:07;;;;;;;9.55;8.65;;;;;;;20.16;100.00;98909.50;5089747;28;20203;-56
2022/06/21 00:46:39;;;;;;;9.75;8.82;;;;;;;20.10;100.00;98899.44;5089690;28;20195;-58
2022/06/21 00:49:14;;;;;;;12.45;9.27;;;;;;;20.02;100.00;98886.84;5093761;28;20206;-57
2022/06/21 00:51:43;;;;;;;9.60;8.80;;;;;;;19.92;100.00;98893.78;5094044;28;20281;-57
2022/06/21 00:54:19;;;;;;;11.60;8.50;;;;;;;19.83;100.00;98884.81;5093978;28;20704;-58
2022/06/21 00:56:52;;;;;;;9.07;8.38;;;;;;;20.00;100.00;98891.41;5093811;28;20222;-57
2022/06/21 00:59:22;;;;;;;9.20;8.10;;;;;;;19.98;100.00;98892.50;5093807;28;20655;-57
2022/06/21 01:01:51;;;;;;;8.13;7.38;;;;;;;20.01;100.00;98884.34;5093869;28;20217;-58
2022/06/21 01:04:30;;;;;;;6.95;6.18;;;;;;;20.08;98.98;98885.56;5093594;28;20199;-57
2022/06/21 01:07:01;;;;;;;6.82;6.43;;;;;;;20.05;97.72;98886.63;5093427;28;20202;-57
2022/06/21 01:09:34;;;;;;;6.15;5.82;;;;;;;20.09;96.55;98881.97;5093493;28;20667;-58
2022/06/21 01:12:07;;;;;;;6.57;6.07;;;;;;;20.03;96.63;98872.72;5093377;28;20199;-58
2022/06/21 01:14:37;;;;;;;6.60;6.20;;;;;;;20.01;97.97;98881.72;5093609;28;20195;-58
2022/06/21 01:17:06;;;;;;;8.25;6.82;;;;;;;19.93;100.00;98885.78;5093485;28;20766;-60
2022/06/21 01:19:40;;;;;;;10.55;6.97;;;;;;;20.00;100.00;98880.88;5093272;28;20199;-58
2022/06/21 01:22:22;;;;;;;9.43;7.07;;;;;;;20.06;100.00;98877.78;5093367;28;20195;-58
2022/06/21 01:24:59;;;;;;;8.30;7.60;;;;;;;20.07;100.00;98873.34;5093220;28;20199;-55
2022/06/21 01:27:27;;;;;;;9.27;8.57;;;;;;;19.87;100.00;98878.34;5093396;28;20199;-54
2022/06/21 01:29:54;;;;;;;9.23;8.02;;;;;;;19.81;100.00;98888.50;5092928;28;20199;-54
2022/06/21 01:32:21;;;;;;;9.98;8.30;;;;;;;19.76;100.00;98886.22;5093170;28;20224;-55
2022/06/21 01:34:48;;;;;;;9.63;8.60;;;;;;;19.69;100.00;98873.66;5093227;28;20577;-55
2022/06/21 01:37:20;;;;;;;8.43;7.75;;;;;;;19.58;100.00;98872.69;5093388;28;20230;-55
2022/06/21 01:39:52;;;;;;;8.38;7.72;;;;;;;19.51;100.00;98875.91;5093253;28;20199;-54
2022/06/21 01:42:22;;;;;;;7.53;6.93;;;;;;;19.52;100.00;98878.41;5093041;28;20207;-54
2022/06/21 01:44:54;;;;;;;7.30;6.80;;;;;;;19.50;100.00;98867.16;5092863;28;20200;-56
2022/06/21 01:47:26;;;;;;;7.70;7.00;;;;;;;19.61;100.00;98876.03;5092589;28;20191;-56
2022/06/21 01:49:57;;;;;;;7.20;6.70;;;;;;;19.61;100.00;98876.03;5092715;28;20191;-58
2022/06/21 01:52:27;;;;;;;7.95;7.22;;;;;;;19.51;100.00;98868.84;5092918;28;20199;-56
2022/06/21 01:54:58;;;;;;;8.93;7.10;;;;;;;19.49;100.00;98868.13;5092755;28;20207;-57
2022/06/21 01:57:25;;;;;;;7.03;6.50;;;;;;;19.49;100.00;98862.00;5092622;28;20258;-55
2022/06/21 01:59:54;;;;;;;8.48;6.90;;;;;;;19.54;100.00;98859.84;5091610;28;20286;-55
2022/06/21 02:02:26;;;;;;;7.53;6.93;;;;;;;19.53;100.00;98840.59;5092645;28;20206;-56
2022/06/21 02:04:57;;;;;;;7.72;6.72;;;;;;;19.58;100.00;98851.63;5092645;28;20199;-55
2022/06/21 02:07:28;;;;;;;7.25;6.68;;;;;;;19.64;100.00;98849.50;5092622;28;20820;-58
2022/06/21 02:10:03;;;;;;;6.57;6.28;;;;;;;19.60;100.00;98854.13;5092382;28;20202;-58
2022/06/21 02:12:33;;;;;;;7.18;6.55;;;;;;;19.49;100.00;98854.13;5092250;28;20202;-59
2022/06/21 02:15:03;;;;;;;6.68;6.28;;;;;;;19.44;100.00;98859.69;5092127;28;20282;-59
2022/06/21 02:17:34;;;;;;;7.22;6.20;;;;;;;19.39;100.00;98856.56;5092183;28;20225;-58
2022/06/21 02:20:06;;;;;;;10.57;6.63;;;;;;;19.34;100.00;98863.97;5092069;28;20282;-58
2022/06/21 02:22:34;;;;;;;6.70;6.20;;;;;;;19.28;100.00;98860.97;5092041;28;20284;-57
2022/06/21 02:25:03;;;;;;;6.47;6.07;;;;;;;19.25;100.00;98866.44;5092308;28;20717;-58
2022/06/21 02:27:33;;;;;;;6.75;6.10;;;;;;;19.18;100.00;98866.06;5092616;28;20192;-58
2022/06/21 02:30:08;;;;;;;6.75;5.68;;;;;;;19.18;100.00;98866.91;5092364;28;20205;-58
2022/06/21 02:32:37;;;;;;;6.45;5.93;;;;;;;19.21;100.00;98885.09;5092575;28;20290;-58
2022/06/21 02:35:09;;;;;;;6.13;5.72;;;;;;;19.15;100.00;98880.28;5092592;28;20199;-58
2022/06/21 02:37:37;;;;;;;5.60;5.25;;;;;;;19.15;100.00;98868.94;5092428;28;20258;-59
2022/06/21 02:40:07;;;;;;;6.10;5.60;;;;;;;19.20;99.83;98887.81;5092317;28;20219;-58
2022/06/21 02:42:39;;;;;;;5.10;4.85;;;;;;;19.26;99.48;98886.53;5092483;28;20217;-57
2022/06/21 02:45:21;;;;;;;7.00;5.68;;;;;;;19.27;98.65;98883.81;5092214;28;20278;-58
2022/06/21 02:47:50;;;;;;;5.90;5.40;;;;;;;19.23;98.33;98880.56;5092111;28;20199;-57
2022/06/21 02:50:38;;;;;;;7.88;4.97;;;;;;;19.18;98.13;98874.81;5092144;28;20273;-58
2022/06/21 02:53:12;;;;;;;4.85;4.53;;;;;;;19.16;97.52;98871.44;5092325;28;20723;-58
2022/06/21 02:55:45;;;;;;;5.82;5.43;;;;;;;19.19;97.07;98875.63;5092192;28;20191;-58
2022/06/21 02:58:21;;;;;;;5.63;5.22;;;;;;;19.23;96.63;98871.81;5091915;28;20827;-57
2022/06/21 03:00:51;;;;;;;9.80;5.97;;;;;;;19.16;96.28;98865.34;5092132;28;20201;-59
2022/06/21 03:03:21;;;;;;;6.40;5.80;;;;;;;19.23;96.00;98871.81;5088320;28;20286;-57
2022/06/21 03:05:51;;;;;;;8.18;5.47;;;;;;;19.28;95.54;98869.69;5086745;28;20195;-57
2022/06/21 03:08:19;;;;;;;11.25;5.90;;;;;;;19.30;95.49;98867.75;5090466;28;20581;-58
2022/06/21 03:10:49;;;;;;;7.70;5.30;;;;;;;19.40;95.01;98862.69;5089212;28;20196;-58
2022/06/21 03:13:20;;;;;;;6.38;5.60;;;;;;;19.31;94.77;98853.66;5088252;28;20221;-55
2022/06/21 03:15:52;;;;;;;5.88;5.38;;;;;;;19.44;94.45;98859.69;5090524;28;20642;-58
2022/06/21 03:18:24;;;;;;;6.38;5.50;;;;;;;19.50;92.94;98861.91;5088260;28;20218;-58
2022/06/21 03:20:52;;;;;;;6.30;5.70;;;;;;;19.52;92.81;98862.63;5089755;28;20248;-58
2022/06/21 03:23:20;;;;;;;5.75;5.45;;;;;;;19.44;92.75;98854.41;5090018;28;20201;-58
2022/06/21 03:25:51;;;;;;;5.30;5.00;;;;;;;19.52;92.98;98856.53;5091313;28;20199;-59
2022/06/21 03:28:30;;;;;;;5.20;4.70;;;;;;;19.69;91.70;98856.06;5091351;28;20199;-58
2022/06/21 03:31:05;;;;;;;6.40;4.80;;;;;;;19.79;91.22;98858.81;5091214;28;20626;-58
2022/06/21 03:33:35;;;;;;;7.85;5.10;;;;;;;19.86;90.62;98854.78;5091747;28;20290;-57
2022/06/21 03:36:05;;;;;;;5.88;5.25;;;;;;;19.89;90.06;98846.63;5090770;28;20210;-57
2022/06/21 03:38:32;;;;;;;5.63;5.13;;;;;;;19.94;89.81;98836.56;5091112;28;20219;-58
2022/06/21 03:43:48;;;;;;;6.13;5.57;;;;;;;20.25;87.68;98827.94;5091199;28;20202;-58
2022/06/21 03:46:25;;;;;;;6.95;5.53;;;;;;;20.45;86.36;98820.25;5090498;28;20202;-58
2022/06/21 03:48:58;;;;;;;9.27;5.53;;;;;;;20.65;84.62;98822.16;5091404;28;20213;-58
2022/06/21 03:51:32;;;;;;;5.10;4.70;;;;;;;20.79;83.52;98813.94;5090587;28;20199;-55
2022/06/21 03:54:02;;;;;;;6.85;6.35;;;;;;;21.48;79.43;98816.97;5090404;28;20197;-56
2022/06/21 03:56:35;;;;;;;5.32;4.93;;;;;;;23.04;71.74;98825.28;5091164;28;20199;-55
2022/06/21 03:59:22;;;;;;;7.60;5.82;;;;;;;24.59;63.05;98838.00;5090625;28;20227;-54
2022/06/21 04:01:57;;;;;;;7.68;6.88;;;;;;;26.40;55.60;98832.09;5090873;28;20205;-55
2022/06/21 04:04:30;;;;;;;6.72;6.20;;;;;;;27.62;50.99;98837.59;5089969;28;20191;-54
2022/06/21 04:07:04;;;;;;;5.38;4.95;;;;;;;28.80;47.19;98845.53;5107495;28;20293;-56
2022/06/21 04:09:38;;;;;;;5.60;4.65;;;;;;;30.11;43.48;98854.16;5110944;28;20201;-57
2022/06/21 04:12:12;;;;;;;8.82;4.65;;;;;;;30.84;41.29;98845.19;5111128;28;20666;-56
2022/06/21 04:14:43;;;;;;;5.82;4.70;;;;;;;31.51;39.37;98852.84;5093545;28;20206;-57
2022/06/21 04:17:17;;;;;;;8.77;5.28;;;;;;;32.27;37.42;98853.84;5090438;28;20688;-58
2022/06/21 04:19:51;;;;;;;13.80;5.38;;;;;;;32.45;36.70;98856.81;5076947;28;20227;-58
2022/06/21 04:22:25;;;;;;;6.50;5.60;;;;;;;32.82;35.82;98854.69;5068998;28;20247;-58
2022/06/21 04:25:03;;;;;;;4.88;4.47;;;;;;;32.33;36.64;98850.34;5076129;28;20258;-58
2022/06/21 04:27:35;;;;;;;5.88;4.50;;;;;;;33.58;34.31;98854.41;5088699;28;20302;-59
2022/06/21 04:30:06;;;;;;;5.35;4.70;;;;;;;34.77;32.39;98852.28;5088151;28;20219;-59
2022/06/21 04:32:42;;;;;;;7.53;5.28;;;;;;;35.44;31.24;98853.53;5086807;28;20679;-57
2022/06/21 04:35:13;;;;;;;5.90;5.05;;;;;;;36.33;29.52;98870.16;5088974;28;20226;-55
2022/06/21 04:37:48;;;;;;;5.80;5.28;;;;;;;35.99;29.79;98860.75;5088853;28;20230;-56
2022/06/21 04:40:21;;;;;;;7.43;6.80;;;;;;;36.19;29.33;98862.38;5084951;28;20237;-57
2022/06/21 04:42:55;;;;;;;12.18;9.73;;;;;;;37.24;27.68;98855.69;5085591;28;20199;-56
2022/06/21 04:45:28;;;;;;;8.55;7.75;;;;;;;37.02;27.78;98859.94;5087526;28;20577;-56
2022/06/21 04:48:09;;;;;;;7.43;6.82;;;;;;;36.73;28.64;98859.69;5087659;28;20199;-56
2022/06/21 04:50:43;;;;;;;9.25;5.38;;;;;;;37.43;27.80;98846.41;5086980;28;20209;-57
2022/06/21 04:53:15;;;;;;;8.00;4.45;;;;;;;37.20;27.58;98853.66;5086170;28;20191;-57
2022/06/21 04:55:50;;;;;;;5.20;4.50;;;;;;;37.80;26.87;98851.63;5087705;28;20194;-56
2022/06/21 04:58:17;;;;;;;5.60;4.55;;;;;;;37.31;27.44;98855.56;5087970;28;20296;-58
2022/06/21 05:00:44;;;;;;;5.15;4.70;;;;;;;37.83;27.38;98856.56;5088707;28;20199;-58
2022/06/21 05:03:27;;;;;;;7.18;5.05;;;;;;;37.69;27.39;98857.88;5088668;28;20194;-59
2022/06/21 05:05:54;;;;;;;5.75;4.60;;;;;;;37.90;27.36;98860.00;5088161;28;20646;-59
2022/06/21 05:08:24;;;;;;;4.95;4.55;;;;;;;37.75;27.18;98860.47;5085984;28;20194;-57
2022/06/21 05:10:55;;;;;;;4.85;4.45;;;;;;;38.12;27.07;98861.06;5088673;28;20197;-57
2022/06/21 05:13:28;;;;;;;7.85;5.25;;;;;;;38.80;26.12;98860.31;5086188;28;20190;-57
2022/06/21 05:15:57;;;;;;;9.88;5.10;;;;;;;39.38;25.99;98861.09;5088599;28;20193;-56
2022/06/21 05:18:30;;;;;;;7.57;5.25;;;;;;;40.16;25.04;98874.56;5086172;28;20279;-56
2022/06/21 05:21:02;;;;;;;6.75;5.20;;;;;;;40.21;24.83;98860.19;5088581;28;20199;-57
2022/06/21 05:23:30;;;;;;;10.18;4.72;;;;;;;40.38;24.90;98860.19;5088776;28;20187;-56
2022/06/21 05:26:01;;;;;;;6.00;4.82;;;;;;;40.42;24.71;98853.16;5088612;28;20286;-56
2022/06/21 05:28:36;;;;;;;7.20;5.25;;;;;;;40.09;24.98;98860.31;5088398;28;20187;-57
2022/06/21 05:31:09;;;;;;;8.27;5.15;;;;;;;39.02;26.37;98854.22;5085984;28;20594;-57
2022/06/21 05:33:42;;;;;;;8.57;4.65;;;;;;;39.55;25.41;98851.06;5088461;28;20269;-57
2022/06/21 05:36:13;;;;;;;9.93;4.47;;;;;;;39.94;25.33;98853.88;5092230;28;20285;-59
2022/06/21 05:38:50;;;;;;;6.50;4.53;;;;;;;40.10;25.08;98861.97;5091375;28;20732;-58
2022/06/21 05:41:32;;;;;;;5.35;4.40;;;;;;;39.51;25.52;98848.00;5090581;28;20627;-59
2022/06/21 05:44:02;;;;;;;7.30;4.60;;;;;;;39.04;26.07;98861.06;5090862;28;20191;-58
2022/06/21 05:46:32;;;;;;;9.82;4.70;;;;;;;39.36;25.39;98863.22;5090814;28;20202;-58
2022/06/21 05:49:08;;;;;;;7.45;4.53;;;;;;;40.24;24.92;98855.09;5090919;28;20198;-59
2022/06/21 05:51:35;;;;;;;10.63;4.05;;;;;;;40.67;24.59;98858.06;5089821;28;20202;-59
2022/06/21 05:54:06;;;;;;;4.68;4.10;;;;;;;40.33;24.68;98849.22;5089990;28;20194;-56
2022/06/21 05:56:37;;;;;;;7.63;4.57;;;;;;;40.12;24.71;98842.69;5090799;28;20273;-56
2022/06/21 05:59:06;;;;;;;5.35;4.43;;;;;;;39.65;25.06;98823.22;5088433;28;20734;-55
2022/06/21 06:01:41;;;;;;;6.68;4.35;;;;;;;38.85;26.21;98838.69;5089874;28;20198;-56
2022/06/21 06:04:15;;;;;;;5.65;4.63;;;;;;;38.30;27.24;98840.28;5090294;28;20252;-56
2022/06/21 06:06:44;;;;;;;10.00;4.38;;;;;;;38.19;27.04;98831.09;5089338;28;20186;-56
2022/06/21 06:09:14;;;;;;;8.63;4.53;;;;;;;38.67;26.49;98822.63;5089085;28;20666;-55
2022/06/21 06:11:59;;;;;;;4.53;4.05;;;;;;;38.24;26.47;98831.22;5090187;28;20289;-58
2022/06/21 06:14:34;;;;;;;4.55;4.20;;;;;;;38.52;25.98;98822.28;5089748;28;20234;-58
2022/06/21 06:17:05;;;;;;;7.50;3.80;;;;;;;38.42;26.62;98816.66;5089501;28;20198;-59
2022/06/21 06:19:40;;;;;;;11.82;3.88;;;;;;;38.39;26.19;98830.69;5091265;28;20218;-58
2022/06/21 06:22:20;;;;;;;6.03;3.58;;;;;;;38.43;26.10;98832.69;5089446;28;20200;-58
2022/06/21 06:24:55;;;;;;;3.78;3.53;;;;;;;38.41;25.63;98829.41;5088971;28;20194;-58
2022/06/21 06:27:29;;;;;;;5.45;3.70;;;;;;;38.26;25.41;98825.56;5087666;28;20194;-59
2022/06/21 06:30:02;;;;;;;5.40;4.78;;;;;;;38.24;24.91;98833.94;5089561;28;20205;-59
2022/06/21 06:32:36;;;;;;;4.10;3.90;;;;;;;38.48;25.45;98840.13;5090028;28;20194;-58
2022/06/21 06:35:16;;;;;;;10.13;3.75;;;;;;;38.67;24.80;98830.75;5087389;28;20597;-58
2022/06/21 06:37:45;;;;;;;6.63;5.63;;;;;;;38.49;24.75;98820.03;5089193;28;20201;-58
2022/06/21 06:40:20;;;;;;;10.25;3.28;;;;;;;38.60;24.35;98838.22;5091782;28;20727;-59
2022/06/21 06:42:51;;;;;;;9.65;5.07;;;;;;;38.24;24.46;98838.53;5091556;28;20194;-59
2022/06/21 06:45:21;;;;;;;3.63;3.25;;;;;;;37.98;25.16;98832.53;5090533;28;20191;-59
2022/06/21 06:47:50;;;;;;;5.10;3.97;;;;;;;37.83;25.81;98825.94;5091326;28;20209;-59
2022/06/21 06:50:25;;;;;;;4.07;3.67;;;;;;;37.74;25.79;98820.06;5090523;28;20202;-58
2022/06/21 06:52:57;;;;;;;6.47;5.05;;;;;;;37.77;25.91;98812.28;5090465;28;20672;-57
2022/06/21 06:55:30;;;;;;;5.68;3.50;;;;;;;37.81;26.16;98828.09;5079280;28;20195;-55
2022/06/21 06:58:02;;;;;;;7.53;3.63;;;;;;;37.51;26.45;98822.72;5090184;28;20210;-56
2022/06/21 07:00:35;;;;;;;12.30;6.78;;;;;;;37.62;26.15;98827.34;5084522;28;20668;-55
2022/06/21 07:03:06;;;;;;;5.90;4.53;;;;;;;37.62;26.48;98824.66;5087272;28;20190;-56
2022/06/21 07:05:39;;;;;;;7.80;3.70;;;;;;;37.49;26.60;98825.66;5086893;28;20199;-55
2022/06/21 07:08:16;;;;;;;3.90;3.25;;;;;;;37.58;26.23;98818.03;5089550;28;20198;-56
2022/06/21 07:10:47;;;;;;;4.05;3.85;;;;;;;37.77;26.67;98814.19;5088058;28;20194;-56
2022/06/21 07:13:14;;;;;;;3.60;3.30;;;;;;;37.93;26.44;98813.44;5087761;28;20207;-56
2022/06/21 07:15:44;;;;;;;8.98;4.40;;;;;;;38.17;25.96;98816.13;5086789;28;20191;-56
2022/06/21 07:18:15;;;;;;;5.20;4.30;;;;;;;37.98;26.09;98801.91;5088276;28;20190;-56
2022/06/21 07:20:46;;;;;;;4.38;3.30;;;;;;;37.99;26.03;98817.91;5087217;28;20195;-57
2022/06/21 07:23:15;;;;;;;5.85;3.70;;;;;;;38.07;25.99;98816.72;5090613;28;20197;-56
2022/06/21 07:25:46;;;;;;;4.97;4.25;;;;;;;38.43;25.46;98811.00;5090098;28;20217;-57
2022/06/21 07:28:19;;;;;;;10.23;4.43;;;;;;;38.14;25.70;98809.34;5090918;28;20205;-59
2022/06/21 07:30:51;;;;;;;6.22;4.22;;;;;;;38.27;25.94;98809.03;5109371;28;20234;-58
2022/06/21 07:33:22;;;;;;;4.95;3.55;;;;;;;38.47;25.65;98811.34;5110982;28;20198;-59
2022/06/21 07:35:55;;;;;;;5.80;3.75;;;;;;;38.38;25.11;98802.75;5111191;28;20764;-59
2022/06/21 07:38:28;;;;;;;6.50;3.70;;;;;;;38.72;25.62;98801.00;5095011;28;20667;-58
2022/06/21 07:41:02;;;;;;;3.67;3.38;;;;;;;38.69;24.60;98800.69;5089562;28;20198;-59
2022/06/21 07:43:34;;;;;;;4.55;3.47;;;;;;;38.89;25.26;98794.78;5089352;28;20194;-57
2022/06/21 07:46:04;;;;;;;4.65;4.13;;;;;;;39.01;24.89;98796.41;5089257;28;20659;-59
2022/06/21 07:48:38;;;;;;;4.50;4.20;;;;;;;38.73;24.32;98808.06;5089020;28;20253;-57
2022/06/21 07:51:09;;;;;;;7.18;3.65;;;;;;;38.73;25.10;98794.50;5089025;28;20195;-57
2022/06/21 07:53:42;;;;;;;4.20;3.20;;;;;;;38.97;24.54;98807.97;5087133;28;20678;-55
2022/06/21 07:56:15;;;;;;;7.25;3.72;;;;;;;39.08;24.39;98796.22;5088914;28;20692;-56
2022/06/21 07:58:47;;;;;;;5.63;3.80;;;;;;;39.29;24.71;98797.38;5088560;28;20232;-56
2022/06/21 08:07:05;;;;;;;7.00;3.90;;;;;;;39.88;24.26;98810.28;5110648;28;20201;-57
2022/06/21 08:09:39;;;;;;;3.80;3.40;;;;;;;39.99;24.29;98808.53;5110358;28;20194;-56
2022/06/21 08:12:10;;;;;;;5.22;4.30;;;;;;;40.25;24.46;98805.06;5110483;28;20216;-56
2022/06/21 08:14:37;;;;;;;4.43;4.03;;;;;;;40.58;23.64;98811.44;5093534;28;20686;-57
2022/06/21 08:17:10;;;;;;;6.90;3.92;;;;;;;40.60;24.18;98809.31;5089949;28;20202;-57
2022/06/21 08:19:42;;;;;;;4.15;3.83;;;;;;;40.89;23.53;98809.88;5090116;28;20575;-57
2022/06/21 08:22:15;;;;;;;18.92;4.10;;;;;;;41.54;23.12;98819.75;5089868;28;20190;-56
2022/06/21 08:24:52;;;;;;;4.90;4.50;;;;;;;41.52;22.41;98822.72;5089889;28;20290;-58
2022/06/21 08:27:24;;;;;;;6.55;3.70;;;;;;;41.40;22.56;98824.81;5089875;28;20209;-55
2022/06/21 08:29:55;;;;;;;4.68;3.65;;;;;;;40.95;23.29;98820.59;5089475;28;20332;-56
2022/06/21 08:32:28;;;;;;;6.35;3.28;;;;;;;41.29;23.16;98823.91;5089706;28;20202;-57
2022/06/21 08:34:59;;;;;;;5.15;4.53;;;;;;;41.16;23.52;98821.63;5089999;28;20193;-57
2022/06/21 08:37:36;;;;;;;4.75;4.45;;;;;;;40.98;24.26;98828.22;5089828;28;20194;-56
2022/06/21 08:40:21;;;;;;;3.92;3.55;;;;;;;40.85;23.84;98819.66;5089612;28;20218;-57
2022/06/21 08:43:24;;;;;;;5.47;3.80;;;;;;;40.51;24.49;98816.28;5089727;28;20285;-56
2022/06/21 08:46:14;;;;;;;7.03;4.32;;;;;;;39.90;25.43;98813.59;5089185;28;20206;-57
2022/06/21 08:49:14;;;;;;;4.53;4.22;;;;;;;39.43;25.02;98818.56;5059306;28;20194;-54
2022/06/21 08:52:01;;;;;;;6.05;3.55;;;;;;;39.22;25.72;98811.97;5089634;28;20197;-57
2022/06/21 08:54:44;;;;;;;4.10;3.90;;;;;;;38.71;26.55;98812.13;5089576;28;20198;-56
2022/06/21 08:57:18;;;;;;;7.10;4.20;;;;;;;38.46;28.00;98809.69;5089392;28;20205;-57
2022/06/21 09:00:02;;;;;;;3.83;3.63;;;;;;;37.62;28.50;98806.53;5089701;28;20221;-57
2022/06/21 09:02:45;;;;;;;7.57;4.00;;;;;;;37.08;27.83;98797.59;5089558;28;20199;-56
2022/06/21 09:05:30;;;;;;;8.63;3.97;;;;;;;37.19;28.27;98801.41;5089345;28;20198;-56
2022/06/21 09:08:16;;;;;;;7.07;4.13;;;;;;;37.27;28.35;98798.34;5089954;28;20293;-56
2022/06/21 09:10:58;;;;;;;4.30;3.90;;;;;;;37.43;29.00;98792.25;5093316;28;20197;-56
2022/06/21 09:13:39;;;;;;;6.28;4.30;;;;;;;37.29;28.38;98796.22;5093257;28;20202;-56
2022/06/21 09:16:17;;;;;;;5.60;3.95;;;;;;;37.31;28.24;98796.84;5093473;28;20286;-57
2022/06/21 09:19:05;;;;;;;5.07;4.45;;;;;;;36.81;29.48;98792.81;5093250;28;20685;-55
2022/06/21 09:21:46;;;;;;;4.00;3.72;;;;;;;36.42;29.10;98786.88;5093346;28;20195;-57
2022/06/21 09:24:24;;;;;;;6.05;4.90;;;;;;;36.48;29.50;98777.84;5090729;28;20203;-56
2022/06/21 09:27:00;;;;;;;7.28;3.92;;;;;;;36.80;28.33;98777.66;5091271;28;20730;-54
2022/06/21 09:29:32;;;;;;;8.10;7.40;;;;;;;36.76;28.60;98784.56;5091595;28;20194;-55
2022/06/21 09:32:21;;;;;;;15.13;13.10;;;;;;;36.65;28.77;98770.75;5091547;28;20723;-56
2022/06/21 09:35:09;;;;;;;7.45;6.85;;;;;;;36.83;29.11;98764.47;5091484;28;20199;-56
2022/06/21 09:37:54;;;;;;;7.18;5.88;;;;;;;37.10;28.46;98762.19;5089776;28;20189;-58
2022/06/21 09:40:27;;;;;;;18.88;5.70;;;;;;;37.37;28.24;98747.16;5090479;28;20210;-56
2022/06/21 09:43:05;;;;;;;4.75;4.15;;;;;;;37.21;28.47;98742.47;5089375;28;20285;-59
2022/06/21 09:45:41;;;;;;;6.90;4.18;;;;;;;37.06;28.05;98740.16;5088921;28;20190;-56
2022/06/21 09:48:16;;;;;;;10.10;5.57;;;;;;;37.20;28.06;98739.97;5091400;28;20187;-56
2022/06/21 09:51:03;;;;;;;5.75;3.60;;;;;;;37.36;27.40;98740.09;5091425;28;20658;-57
2022/06/21 09:53:46;;;;;;;7.18;4.18;;;;;;;37.61;27.74;98749.84;5091407;28;20199;-58
2022/06/21 09:56:26;;;;;;;6.88;4.10;;;;;;;37.82;27.18;98738.44;5088882;28;20193;-57
2022/06/21 09:59:03;;;;;;;5.07;3.38;;;;;;;37.86;26.51;98739.59;5088591;28;20646;-58
2022/06/21 10:01:39;;;;;;;3.95;3.15;;;;;;;37.89;26.27;98739.13;5090922;28;20190;-57
2022/06/21 10:04:21;;;;;;;3.90;3.28;;;;;;;37.82;26.30;98732.19;5091260;28;20202;-57
2022/06/21 10:06:56;;;;;;;5.13;3.60;;;;;;;37.67;26.49;98740.81;5091031;28;20183;-56
2022/06/21 10:09:39;;;;;;;4.97;3.55;;;;;;;37.49;26.33;98743.63;5091046;28;20213;-57
2022/06/21 10:12:17;;;;;;;12.85;3.88;;;;;;;37.34;25.62;98728.69;5090705;28;20603;-57
2022/06/21 10:15:09;;;;;;;4.88;3.95;;;;;;;37.15;26.32;98712.75;5091187;28;20734;-57
2022/06/21 10:18:03;;;;;;;7.43;3.80;;;;;;;36.93;25.81;98723.31;5088897;28;20187;-57
2022/06/21 10:20:52;;;;;;;6.47;3.53;;;;;;;36.71;25.86;98713.06;5090097;28;20294;-57
2022/06/21 10:23:44;;;;;;;4.10;3.75;;;;;;;36.68;26.56;98716.19;5089102;28;20194;-56
2022/06/21 10:26:33;;;;;;;3.80;3.50;;;;;;;36.26;27.44;98706.44;5088018;28;20264;-56
2022/06/21 10:29:17;;;;;;;3.70;3.40;;;;;;;36.26;27.02;98701.03;5086643;28;20203;-57
2022/06/21 10:32:08;;;;;;;7.20;4.20;;;;;;;36.19;26.17;98705.66;5089222;28;20223;-57
2022/06/21 10:35:07;;;;;;;11.68;5.05;;;;;;;35.99;26.56;98700.53;5088240;28;20195;-57
2022/06/21 10:37:48;;;;;;;6.40;4.30;;;;;;;35.76;26.92;98698.53;5085909;28;20666;-58
2022/06/21 10:40:34;;;;;;;6.57;4.30;;;;;;;35.61;27.34;98690.78;5088152;28;20211;-57
2022/06/21 10:43:36;;;;;;;4.30;4.10;;;;;;;35.47;28.20;98693.84;5088836;28;20204;-56
2022/06/21 10:46:09;;;;;;;5.30;4.88;;;;;;;35.35;28.62;98692.91;5089342;28;20201;-58
2022/06/21 10:49:14;;;;;;;6.95;4.90;;;;;;;35.25;28.39;98694.25;5088262;28;20198;-57
2022/06/21 10:51:59;;;;;;;6.65;4.63;;;;;;;35.24;28.83;98692.56;5090462;28;20282;-56
2022/06/21 10:54:48;;;;;;;5.57;4.88;;;;;;;35.27;29.12;98692.19;5089534;28;20675;-56
2022/06/21 10:57:23;;;;;;;7.50;5.53;;;;;;;35.25;29.85;98688.88;5087481;28;20200;-56
2022/06/21 11:03:13;;;;;;;5.95;5.40;;;;;;;35.49;30.14;98689.03;5089165;28;20202;-56
2022/06/21 11:05:52;;;;;;;8.88;5.95;;;;;;;35.40;30.65;98693.09;5088520;28;20219;-57
2022/06/21 11:08:27;;;;;;;7.28;6.55;;;;;;;35.38;30.89;98689.78;5088447;28;20554;-55
2022/06/21 11:11:01;;;;;;;10.00;6.07;;;;;;;35.36;30.72;98690.00;5087557;28;20191;-56
2022/06/21 11:13:34;;;;;;;7.32;5.72;;;;;;;35.45;30.36;98690.53;5089952;28;20282;-56
2022/06/21 11:16:08;;;;;;;7.82;6.30;;;;;;;35.48;31.03;98682.00;5090003;28;20784;-56
2022/06/21 11:18:50;;;;;;;6.28;5.72;;;;;;;35.44;30.62;98689.69;5087687;28;20709;-56
2022/06/21 11:21:30;;;;;;;11.57;6.50;;;;;;;35.21;30.91;98690.34;5087687;28;20248;-56
2022/06/21 11:24:11;;;;;;;10.85;7.78;;;;;;;35.26;31.12;98695.09;5087645;28;20226;-56
2022/06/21 11:26:50;;;;;;;7.35;6.75;;;;;;;35.29;31.76;98687.38;5087311;28;20199;-56
2022/06/21 11:29:25;;;;;;;7.10;6.00;;;;;;;35.45;31.77;98677.84;5088136;28;20198;-57
2022/06/21 11:31:59;;;;;;;7.15;6.45;;;;;;;35.43;31.95;98679.97;5087354;28;20227;-55
2022/06/21 11:34:34;;;;;;;8.70;6.35;;;;;;;35.50;32.15;98682.59;5089897;28;20195;-54
2022/06/21 11:37:16;;;;;;;8.02;6.20;;;;;;;35.49;31.81;98678.25;5091962;28;20187;-55
2022/06/21 11:39:56;;;;;;;16.48;6.50;;;;;;;35.46;31.86;98678.69;5086938;28;20217;-54
2022/06/21 11:42:27;;;;;;;9.82;6.72;;;;;;;35.24;31.99;98687.19;5086899;28;20566;-55
2022/06/21 11:45:22;;;;;;;6.88;5.75;;;;;;;35.14;32.27;98676.09;5086855;28;20191;-55
2022/06/21 11:48:21;;;;;;;7.63;6.90;;;;;;;35.21;32.35;98674.16;5087479;28;20619;-56
2022/06/21 11:50:58;;;;;;;9.18;6.57;;;;;;;35.22;32.90;98667.69;5087418;28;20692;-56
2022/06/21 11:53:44;;;;;;;8.35;7.47;;;;;;;35.26;33.11;98657.31;5086560;28;20187;-55
2022/06/21 11:56:18;;;;;;;7.05;6.55;;;;;;;35.26;33.42;98663.53;5087543;28;20199;-56
2022/06/21 11:58:51;;;;;;;7.45;6.80;;;;;;;35.32;33.41;98651.03;5086824;28;20194;-56
2022/06/21 12:01:24;;;;;;;8.07;7.47;;;;;;;35.44;33.36;98654.63;5086562;28;20301;-54
2022/06/21 12:04:03;;;;;;;8.88;7.28;;;;;;;35.38;33.26;98649.31;5088602;28;20195;-55
2022/06/21 12:06:37;;;;;;;9.02;7.38;;;;;;;35.16;33.90;98652.41;5087603;28;20198;-56
2022/06/21 12:09:14;;;;;;;7.68;7.03;;;;;;;35.09;33.94;98650.84;5088686;28;20195;-55
2022/06/21 12:11:55;;;;;;;8.05;7.35;;;;;;;34.89;34.39;98645.59;5086454;28;20195;-56
2022/06/21 12:14:36;;;;;;;7.80;7.00;;;;;;;34.95;34.57;98647.44;5086362;28;20206;-56
2022/06/21 12:17:20;;;;;;;7.97;7.40;;;;;;;35.01;34.50;98646.53;5086947;28;20557;-55
2022/06/21 12:19:58;;;;;;;9.13;7.40;;;;;;;35.05;34.24;98650.44;5087563;28;20671;-55